Time;durP1;ratioP1;P1;durP2;ratioP2;P2;SDS_P1;SDS_P2;PMS_P1;PMS_P2;Temp;Humidity;BMP_temperature;BMP_pressure;BME280_temperature;BME280_humidity;BME280_pressure;Samples;Min_cycle;Max_cycle;Signal;HPM_P1;HPM_P2
2023/12/01 00:01:10;;;;;;;12.13;7.20;;;2.80;99.90;;;;;;4192261;28;21083;-58
2023/12/01 00:03:11;;;;;;;17.73;6.53;;;2.80;99.90;;;;;;4192342;28;20265;-58
2023/12/01 00:05:12;;;;;;;10.50;5.73;;;2.80;99.90;;;;;;4191649;28;20335;-57
2023/12/01 00:07:14;;;;;;;10.40;6.27;;;2.80;99.90;;;;;;4191488;28;20277;-58
2023/12/01 00:09:15;;;;;;;12.23;6.23;;;2.80;99.90;;;;;;4192059;28;20253;-57
2023/12/01 00:11:16;;;;;;;12.13;5.83;;;2.90;99.90;;;;;;4192077;28;20764;-52
2023/12/01 00:13:17;;;;;;;11.70;6.17;;;2.80;99.90;;;;;;4192053;28;20281;-57
2023/12/01 00:15:19;;;;;;;12.57;6.63;;;2.80;99.90;;;;;;4191289;28;20322;-57
2023/12/01 00:17:20;;;;;;;15.73;7.13;;;2.90;99.90;;;;;;4190694;28;20347;-57
2023/12/01 00:19:21;;;;;;;11.67;6.73;;;2.90;99.90;;;;;;4192529;28;20273;-58
2023/12/01 00:21:22;;;;;;;14.17;6.97;;;2.90;99.90;;;;;;4191608;28;20426;-59
2023/12/01 00:23:23;;;;;;;11.73;6.80;;;2.90;99.90;;;;;;4191061;28;20312;-58
2023/12/01 00:25:25;;;;;;;14.03;6.70;;;2.90;99.90;;;;;;4191260;28;20614;-58
2023/12/01 00:27:26;;;;;;;12.70;6.40;;;2.90;99.90;;;;;;4191952;28;20303;-56
2023/12/01 00:29:28;;;;;;;11.97;6.33;;;2.90;99.90;;;;;;4192253;28;20265;-57
2023/12/01 00:31:29;;;;;;;15.33;6.70;;;2.90;99.90;;;;;;4191236;28;20297;-56
2023/12/01 00:33:30;;;;;;;10.77;5.87;;;2.90;99.90;;;;;;4191953;28;20323;-58
2023/12/01 00:35:31;;;;;;;12.93;5.90;;;2.90;99.90;;;;;;4192507;28;20326;-58
2023/12/01 00:37:32;;;;;;;14.13;6.97;;;2.80;99.90;;;;;;4190540;28;20796;-58
2023/12/01 00:39:34;;;;;;;14.10;7.10;;;2.90;99.90;;;;;;4192092;28;20265;-58
2023/12/01 00:41:35;;;;;;;13.37;6.73;;;2.80;99.90;;;;;;4195238;28;20257;-58
2023/12/01 00:43:39;;;;;;;13.23;7.20;;;2.80;99.90;;;;;;4194404;28;20262;-56
2023/12/01 00:45:40;;;;;;;12.33;6.80;;;2.80;99.90;;;;;;4194771;28;20257;-58
2023/12/01 00:47:41;;;;;;;13.53;7.60;;;2.70;99.90;;;;;;4195711;28;21084;-55
2023/12/01 00:49:43;;;;;;;13.23;7.30;;;2.70;99.90;;;;;;4194667;28;20677;-55
2023/12/01 00:51:45;;;;;;;14.33;7.17;;;2.80;99.90;;;;;;4195056;28;20366;-57
2023/12/01 00:53:47;;;;;;;15.63;7.03;;;2.70;99.90;;;;;;4194712;28;20269;-59
2023/12/01 00:55:48;;;;;;;12.53;7.50;;;2.70;99.90;;;;;;4195354;28;20275;-59
2023/12/01 00:57:53;;;;;;;15.33;8.17;;;2.80;99.90;;;;;;4195333;28;20335;-58
2023/12/01 00:59:54;;;;;;;13.90;7.10;;;2.80;99.90;;;;;;4195117;28;20270;-58
2023/12/01 01:01:55;;;;;;;15.10;7.03;;;2.80;99.90;;;;;;4194741;28;20270;-55
2023/12/01 01:03:57;;;;;;;13.20;7.60;;;2.80;99.90;;;;;;4194741;28;20319;-58
2023/12/01 01:06:00;;;;;;;14.63;6.73;;;2.80;99.90;;;;;;4194622;28;20285;-57
2023/12/01 01:08:01;;;;;;;13.13;7.37;;;2.80;99.90;;;;;;4195032;28;20673;-57
2023/12/01 01:10:02;;;;;;;14.93;7.70;;;2.80;99.90;;;;;;4195162;28;20265;-58
2023/12/01 01:12:04;;;;;;;15.17;9.07;;;2.80;99.90;;;;;;4194131;28;20773;-59
2023/12/01 01:14:05;;;;;;;13.97;7.77;;;2.80;99.90;;;;;;4193599;28;20319;-57
2023/12/01 01:16:08;;;;;;;14.13;7.40;;;2.80;99.90;;;;;;4193704;28;20331;-55
2023/12/01 01:18:09;;;;;;;18.47;7.70;;;2.80;99.90;;;;;;4193547;28;20789;-57
2023/12/01 01:20:11;;;;;;;13.80;7.07;;;2.70;99.90;;;;;;4193321;28;20319;-58
2023/12/01 01:22:12;;;;;;;15.60;8.77;;;2.70;99.90;;;;;;4193885;28;20257;-58
2023/12/01 01:24:13;;;;;;;13.53;6.97;;;2.70;99.90;;;;;;4193671;28;20261;-59
2023/12/01 01:26:14;;;;;;;12.90;7.30;;;2.70;99.90;;;;;;4193418;28;20273;-57
2023/12/01 01:28:16;;;;;;;12.93;7.20;;;2.80;99.90;;;;;;4192979;28;20319;-58
2023/12/01 01:30:17;;;;;;;12.13;7.03;;;2.80;99.90;;;;;;4192952;28;20273;-59
2023/12/01 01:32:18;;;;;;;11.77;6.80;;;2.80;99.90;;;;;;4192668;28;20289;-59
2023/12/01 01:34:21;;;;;;;15.57;7.57;;;2.80;99.90;;;;;;4193061;28;20282;-57
2023/12/01 01:36:22;;;;;;;13.57;7.47;;;2.70;99.90;;;;;;4192804;28;20293;-58
2023/12/01 01:38:23;;;;;;;17.37;7.60;;;2.70;99.90;;;;;;4193574;28;20258;-58
2023/12/01 01:40:24;;;;;;;13.17;7.87;;;2.70;99.90;;;;;;4193962;28;20648;-60
2023/12/01 01:42:25;;;;;;;13.27;7.83;;;2.70;99.90;;;;;;4177308;28;20270;-58
2023/12/01 01:44:27;;;;;;;14.43;7.37;;;2.70;99.90;;;;;;4177145;28;20642;-57
2023/12/01 01:46:28;;;;;;;12.43;7.07;;;2.70;99.90;;;;;;4175920;28;20316;-58
2023/12/01 01:48:30;;;;;;;15.70;7.60;;;2.70;99.90;;;;;;4176492;28;20324;-59
2023/12/01 01:50:31;;;;;;;15.77;8.63;;;2.80;99.90;;;;;;4185476;28;20327;-57
2023/12/01 01:52:35;;;;;;;13.90;7.80;;;2.80;99.90;;;;;;4186643;28;20297;-57
2023/12/01 01:54:37;;;;;;;16.83;8.67;;;2.80;99.90;;;;;;4193715;28;20269;-59
2023/12/01 01:56:39;;;;;;;17.30;7.80;;;2.80;99.90;;;;;;4193288;28;20266;-56
2023/12/01 01:58:41;;;;;;;15.70;7.80;;;2.80;99.90;;;;;;4192489;28;20770;-59
2023/12/01 02:00:49;;;;;;;13.03;7.47;;;2.80;99.90;;;;;;4192768;28;20323;-58
2023/12/01 02:02:50;;;;;;;13.80;7.60;;;2.80;99.90;;;;;;4192106;28;20296;-60
2023/12/01 02:04:53;;;;;;;11.83;7.37;;;2.70;99.90;;;;;;4192424;28;20339;-59
2023/12/01 02:06:55;;;;;;;14.57;8.07;;;2.70;99.90;;;;;;4193600;28;20277;-58
2023/12/01 02:08:56;;;;;;;12.50;7.10;;;2.70;99.90;;;;;;4191743;28;20830;-59
2023/12/01 02:10:58;;;;;;;14.90;8.33;;;2.70;99.90;;;;;;4192862;28;20335;-56
2023/12/01 02:12:59;;;;;;;16.10;7.63;;;2.70;99.90;;;;;;4118734;28;2112116;-58
2023/12/01 02:15:01;;;;;;;13.30;7.60;;;2.70;99.90;;;;;;4194298;28;20070;-58
2023/12/01 02:17:02;;;;;;;12.67;6.93;;;2.70;99.90;;;;;;4193368;28;20277;-60
2023/12/01 02:19:03;;;;;;;14.53;7.57;;;2.70;99.90;;;;;;4192553;28;20270;-58
2023/12/01 02:21:04;;;;;;;17.57;7.87;;;2.70;99.90;;;;;;4193210;28;20628;-60
2023/12/01 02:23:07;;;;;;;11.87;6.90;;;2.70;99.90;;;;;;4193460;28;20343;-59
2023/12/01 02:25:08;;;;;;;16.93;7.60;;;2.70;99.90;;;;;;4193444;28;20261;-59
2023/12/01 02:27:10;;;;;;;16.50;7.53;;;2.70;99.90;;;;;;4193807;28;20277;-61
2023/12/01 02:29:11;;;;;;;13.73;7.10;;;2.70;99.90;;;;;;4192188;28;20277;-59
2023/12/01 02:31:12;;;;;;;17.47;9.17;;;2.70;99.90;;;;;;4193415;28;20329;-55
2023/12/01 02:33:17;;;;;;;15.50;8.20;;;2.70;99.90;;;;;;4192913;28;20422;-56
2023/12/01 02:35:18;;;;;;;15.37;8.77;;;2.70;99.90;;;;;;4193044;28;20265;-59
2023/12/01 02:37:20;;;;;;;19.63;10.27;;;2.70;99.90;;;;;;4193660;28;20644;-57
2023/12/01 02:39:21;;;;;;;25.37;11.43;;;2.70;99.90;;;;;;4193453;28;20319;-59
2023/12/01 02:41:22;;;;;;;21.10;10.30;;;2.70;99.90;;;;;;4193792;28;20266;-60
2023/12/01 02:43:23;;;;;;;20.97;10.57;;;2.70;99.90;;;;;;4193333;28;20840;-59
2023/12/01 02:45:24;;;;;;;19.17;10.93;;;2.70;99.90;;;;;;4192390;28;20273;-59
2023/12/01 02:47:26;;;;;;;19.80;10.30;;;2.70;99.90;;;;;;4193469;28;20346;-58
2023/12/01 02:49:27;;;;;;;21.13;10.27;;;2.70;99.90;;;;;;4193403;28;20769;-57
2023/12/01 02:51:28;;;;;;;17.27;9.33;;;2.80;99.90;;;;;;4192880;28;20737;-57
2023/12/01 02:53:29;;;;;;;16.50;8.87;;;2.80;99.90;;;;;;4193504;28;20358;-58
2023/12/01 02:55:30;;;;;;;17.37;8.63;;;2.80;99.90;;;;;;4192457;28;20794;-58
2023/12/01 02:57:32;;;;;;;15.73;8.23;;;2.80;99.90;;;;;;4192438;28;20376;-59
2023/12/01 02:59:34;;;;;;;15.07;7.77;;;2.80;99.90;;;;;;4193450;28;21026;-54
2023/12/01 03:01:35;;;;;;;14.37;7.77;;;2.80;99.90;;;;;;4191901;28;20270;-58
2023/12/01 03:03:37;;;;;;;14.63;8.20;;;2.80;99.90;;;;;;4192127;28;20273;-59
2023/12/01 03:05:38;;;;;;;13.93;8.03;;;2.90;99.90;;;;;;4192061;28;20277;-58
2023/12/01 03:07:40;;;;;;;15.60;7.90;;;2.90;99.90;;;;;;4190539;28;20281;-57
2023/12/01 03:09:41;;;;;;;15.37;8.53;;;2.90;99.90;;;;;;4192423;28;20709;-58
2023/12/01 03:11:43;;;;;;;11.63;7.10;;;2.90;99.90;;;;;;4192639;28;20281;-58
2023/12/01 03:13:44;;;;;;;13.77;7.40;;;2.90;99.90;;;;;;4192637;28;20316;-57
2023/12/01 03:15:45;;;;;;;18.07;8.90;;;2.90;99.90;;;;;;4191290;28;20331;-55
2023/12/01 03:17:47;;;;;;;16.43;8.03;;;2.90;99.90;;;;;;4191285;28;20277;-58
2023/12/01 03:19:51;;;;;;;15.53;8.07;;;2.90;99.90;;;;;;4193100;28;20730;-58
2023/12/01 03:21:52;;;;;;;15.80;7.93;;;2.90;99.90;;;;;;4192440;28;20269;-55
2023/12/01 03:23:53;;;;;;;12.60;7.23;;;3.00;99.90;;;;;;4192175;28;20261;-56
2023/12/01 03:25:54;;;;;;;14.40;7.80;;;3.00;99.90;;;;;;4192372;28;20331;-57
2023/12/01 03:27:55;;;;;;;13.93;7.93;;;3.00;99.90;;;;;;4193032;28;20791;-56
2023/12/01 03:29:56;;;;;;;16.47;8.17;;;3.00;99.90;;;;;;4192011;28;20410;-58
2023/12/01 03:31:57;;;;;;;13.70;7.67;;;2.90;99.90;;;;;;4191844;28;20351;-57
2023/12/01 03:34:00;;;;;;;13.03;7.50;;;3.00;99.90;;;;;;4192003;28;20737;-58
2023/12/01 03:36:02;;;;;;;17.37;8.53;;;2.90;99.90;;;;;;4192133;28;20269;-58
2023/12/01 03:38:03;;;;;;;14.23;8.03;;;2.90;99.90;;;;;;4192682;28;20274;-57
2023/12/01 03:40:12;;;;;;;15.63;8.40;;;2.90;99.90;;;;;;4191863;28;20910;-51
2023/12/01 03:42:13;;;;;;;17.57;8.10;;;2.90;99.90;;;;;;4192366;28;20282;-59
2023/12/01 03:44:15;;;;;;;17.43;8.73;;;2.90;99.90;;;;;;4192236;28;20814;-56
2023/12/01 03:46:16;;;;;;;15.93;8.83;;;2.90;99.90;;;;;;4192450;28;20670;-57
2023/12/01 03:48:17;;;;;;;15.03;7.87;;;2.90;99.90;;;;;;4191879;28;20261;-59
2023/12/01 03:50:19;;;;;;;15.10;7.70;;;2.90;99.90;;;;;;4192455;28;20664;-58
2023/12/01 03:52:20;;;;;;;14.13;7.50;;;2.80;99.90;;;;;;4191143;28;20757;-56
2023/12/01 03:54:21;;;;;;;14.80;7.57;;;2.80;99.90;;;;;;4192175;28;20583;-58
2023/12/01 03:56:23;;;;;;;12.93;7.43;;;2.80;99.90;;;;;;4191484;28;20808;-57
2023/12/01 03:58:24;;;;;;;15.90;8.60;;;2.80;99.90;;;;;;4192329;28;20269;-59
2023/12/01 04:00:32;;;;;;;18.23;8.60;;;2.80;99.90;;;;;;4192366;28;20299;-57
2023/12/01 04:02:37;;;;;;;12.97;7.17;;;2.80;99.90;;;;;;4191156;28;20331;-53
2023/12/01 04:04:38;;;;;;;15.53;8.60;;;2.80;99.90;;;;;;4191740;28;20286;-58
2023/12/01 04:06:42;;;;;;;13.63;7.93;;;2.90;99.90;;;;;;4191954;28;20430;-59
2023/12/01 04:08:43;;;;;;;14.37;7.90;;;2.80;99.90;;;;;;4190507;28;20351;-56
2023/12/01 04:10:45;;;;;;;15.73;8.30;;;2.80;99.90;;;;;;4191635;28;20323;-57
2023/12/01 04:12:46;;;;;;;15.23;7.80;;;2.80;99.90;;;;;;4190789;28;20708;-59
2023/12/01 04:14:47;;;;;;;15.80;7.87;;;2.80;99.90;;;;;;4191627;28;20311;-58
2023/12/01 04:16:48;;;;;;;14.97;8.47;;;2.90;99.90;;;;;;4191208;28;20356;-52
2023/12/01 04:18:49;;;;;;;16.10;8.80;;;2.90;99.90;;;;;;4191648;28;20261;-58
2023/12/01 04:20:51;;;;;;;18.03;8.60;;;2.90;99.90;;;;;;4192472;28;20278;-59
2023/12/01 04:23:00;;;;;;;17.07;8.07;;;2.90;99.90;;;;;;4191568;28;20285;-58
2023/12/01 04:25:01;;;;;;;13.00;8.40;;;2.90;99.90;;;;;;4192382;28;20295;-58
2023/12/01 04:27:04;;;;;;;14.70;8.47;;;3.00;99.90;;;;;;4191950;28;20342;-59
2023/12/01 04:29:05;;;;;;;15.67;8.50;;;3.00;99.90;;;;;;4191406;28;20285;-56
2023/12/01 04:31:06;;;;;;;15.97;7.93;;;3.10;99.90;;;;;;4191971;28;20819;-58
2023/12/01 04:33:08;;;;;;;15.77;8.70;;;3.10;99.90;;;;;;4191736;28;20688;-58
2023/12/01 04:35:10;;;;;;;14.10;8.33;;;3.20;99.90;;;;;;4191675;28;20343;-56
2023/12/01 04:37:12;;;;;;;13.27;7.23;;;3.20;99.90;;;;;;4191132;28;20733;-59
2023/12/01 04:39:14;;;;;;;14.83;8.43;;;3.30;99.90;;;;;;4191329;28;20651;-58
2023/12/01 04:41:15;;;;;;;13.23;7.73;;;3.30;99.90;;;;;;4191798;28;20343;-60
2023/12/01 04:43:19;;;;;;;13.87;8.40;;;3.30;99.90;;;;;;4191023;28;20746;-58
2023/12/01 04:45:24;;;;;;;12.23;7.87;;;3.30;99.90;;;;;;4192411;28;20261;-55
2023/12/01 04:47:25;;;;;;;14.87;8.17;;;3.30;99.90;;;;;;4208410;28;20261;-56
2023/12/01 04:49:26;;;;;;;13.87;8.60;;;3.20;99.90;;;;;;4191239;28;20318;-55
2023/12/01 04:51:28;;;;;;;15.13;8.00;;;3.20;99.90;;;;;;4191423;28;20257;-56
2023/12/01 04:53:29;;;;;;;12.57;7.60;;;3.10;99.90;;;;;;4191461;28;20719;-58
2023/12/01 04:55:30;;;;;;;15.57;8.53;;;3.10;99.90;;;;;;4191899;28;20318;-59
2023/12/01 04:57:31;;;;;;;13.87;7.97;;;3.00;99.90;;;;;;4191262;28;20269;-56
2023/12/01 04:59:32;;;;;;;14.90;7.87;;;3.00;99.90;;;;;;4192076;28;20254;-60
2023/12/01 05:01:35;;;;;;;14.30;8.20;;;3.00;99.90;;;;;;4191111;28;20265;-59
2023/12/01 05:03:36;;;;;;;13.77;7.90;;;3.00;99.90;;;;;;4191497;28;20269;-57
2023/12/01 05:05:40;;;;;;;16.10;8.77;;;3.10;99.90;;;;;;4191885;28;20261;-59
2023/12/01 05:07:43;;;;;;;13.47;8.60;;;3.10;99.90;;;;;;4192239;28;20730;-59
2023/12/01 05:09:44;;;;;;;15.93;8.00;;;3.10;99.90;;;;;;4192008;28;20261;-59
2023/12/01 05:11:45;;;;;;;14.63;8.73;;;3.10;99.90;;;;;;4191683;28;20266;-60
2023/12/01 05:13:46;;;;;;;16.37;8.17;;;3.10;99.90;;;;;;4190919;28;20402;-59
2023/12/01 05:15:48;;;;;;;16.10;8.13;;;3.10;99.90;;;;;;4191121;28;20285;-58
2023/12/01 05:18:01;;;;;;;14.50;8.27;;;3.10;99.90;;;;;;4191355;28;20315;-58
2023/12/01 05:20:03;;;;;;;12.67;7.87;;;3.00;99.90;;;;;;4191331;28;20278;-58
2023/12/01 05:22:04;;;;;;;15.30;8.53;;;3.10;99.90;;;;;;4191866;28;20318;-58
2023/12/01 05:24:05;;;;;;;16.37;8.63;;;3.10;99.90;;;;;;4189893;28;20315;-59
2023/12/01 05:26:08;;;;;;;16.77;8.13;;;3.10;99.90;;;;;;4192857;28;20266;-58
2023/12/01 05:28:11;;;;;;;15.03;8.47;;;3.10;99.90;;;;;;4194334;28;20254;-59
2023/12/01 05:30:14;;;;;;;12.33;7.63;;;3.20;99.90;;;;;;4193973;28;20273;-59
2023/12/01 05:32:17;;;;;;;15.07;9.03;;;3.20;99.90;;;;;;4193192;28;20330;-57
2023/12/01 05:34:19;;;;;;;15.97;8.43;;;3.20;99.90;;;;;;4194097;28;20713;-59
2023/12/01 05:36:20;;;;;;;15.53;8.07;;;3.20;99.90;;;;;;4193684;28;20323;-59
2023/12/01 05:38:21;;;;;;;13.43;7.40;;;3.20;99.90;;;;;;4194367;28;20265;-58
2023/12/01 05:40:28;;;;;;;14.70;8.20;;;3.20;99.90;;;;;;4194529;28;20304;-60
2023/12/01 05:42:29;;;;;;;14.90;7.80;;;3.20;99.90;;;;;;4194303;28;20765;-58
2023/12/01 05:44:30;;;;;;;18.77;9.80;;;3.20;99.90;;;;;;4194850;28;20571;-58
2023/12/01 05:46:31;;;;;;;18.93;9.43;;;3.30;99.90;;;;;;4194621;28;20323;-59
2023/12/01 05:48:33;;;;;;;16.23;9.20;;;3.30;99.90;;;;;;4194647;28;20265;-54
2023/12/01 05:50:34;;;;;;;17.37;9.60;;;3.30;99.90;;;;;;4194590;28;20364;-57
2023/12/01 05:52:36;;;;;;;14.90;9.03;;;3.30;99.90;;;;;;4194389;28;20311;-58
2023/12/01 05:54:37;;;;;;;16.60;8.80;;;3.40;99.90;;;;;;4193879;28;20814;-58
2023/12/01 05:56:38;;;;;;;16.63;8.97;;;3.40;99.90;;;;;;4194514;28;20277;-55
2023/12/01 05:58:39;;;;;;;17.87;9.63;;;3.40;99.90;;;;;;4193548;28;20343;-58
2023/12/01 06:00:41;;;;;;;19.80;9.43;;;3.40;99.90;;;;;;4194335;28;20320;-59
2023/12/01 06:02:43;;;;;;;19.33;9.97;;;3.40;99.90;;;;;;4174963;28;20316;-60
2023/12/01 06:04:45;;;;;;;16.80;10.07;;;3.40;99.90;;;;;;4193481;28;20331;-60
2023/12/01 06:06:47;;;;;;;18.43;10.63;;;3.50;99.90;;;;;;4193812;28;20652;-58
2023/12/01 06:08:48;;;;;;;19.73;10.93;;;3.50;99.90;;;;;;4192828;28;20384;-57
2023/12/01 06:10:49;;;;;;;21.90;10.80;;;3.50;99.90;;;;;;4193210;28;20277;-60
2023/12/01 06:12:51;;;;;;;20.47;10.93;;;3.50;99.90;;;;;;4193410;28;20797;-54
2023/12/01 06:14:52;;;;;;;21.23;10.83;;;3.50;99.90;;;;;;4193148;28;20258;-59
2023/12/01 06:16:53;;;;;;;20.30;10.73;;;3.50;99.90;;;;;;4193602;28;20319;-59
2023/12/01 06:18:54;;;;;;;21.97;10.20;;;3.60;99.90;;;;;;4192369;28;20817;-58
2023/12/01 06:20:55;;;;;;;17.57;10.23;;;3.60;99.90;;;;;;4193324;28;20639;-59
2023/12/01 06:23:01;;;;;;;21.17;10.80;;;3.60;99.90;;;;;;4193766;28;20335;-58
2023/12/01 06:25:03;;;;;;;20.60;10.70;;;3.60;99.90;;;;;;4192660;28;20602;-54
2023/12/01 06:27:04;;;;;;;21.33;11.50;;;3.70;99.90;;;;;;4192501;28;20327;-60
2023/12/01 06:29:06;;;;;;;19.33;10.97;;;3.70;99.90;;;;;;4191954;28;20254;-60
2023/12/01 06:31:07;;;;;;;20.50;11.07;;;3.80;99.90;;;;;;4191286;28;20277;-55
2023/12/01 06:33:08;;;;;;;18.67;10.80;;;3.80;99.90;;;;;;4193363;28;20285;-59
2023/12/01 06:35:15;;;;;;;22.00;11.13;;;3.80;99.90;;;;;;4193395;28;20335;-59
2023/12/01 06:37:17;;;;;;;20.77;11.47;;;3.80;99.90;;;;;;4191834;28;20265;-59
2023/12/01 06:39:19;;;;;;;20.67;11.17;;;3.80;99.90;;;;;;4192960;28;20599;-58
2023/12/01 06:41:20;;;;;;;19.57;11.27;;;3.90;99.90;;;;;;4193680;28;20273;-57
2023/12/01 06:43:21;;;;;;;18.23;11.13;;;3.90;99.90;;;;;;4193661;28;20266;-59
2023/12/01 06:45:27;;;;;;;24.07;12.67;;;4.00;99.90;;;;;;4192464;28;20331;-59
2023/12/01 06:47:29;;;;;;;38.33;18.80;;;4.00;99.90;;;;;;4174079;28;20282;-61
2023/12/01 06:49:30;;;;;;;24.13;13.40;;;4.00;99.90;;;;;;4192321;28;20066;-59
2023/12/01 06:51:31;;;;;;;18.63;10.90;;;4.00;99.90;;;;;;4192538;28;20270;-59
2023/12/01 06:53:32;;;;;;;20.17;11.50;;;4.00;99.90;;;;;;4191323;28;20396;-61
2023/12/01 06:55:34;;;;;;;18.40;10.97;;;3.90;99.90;;;;;;4192236;28;20311;-60
2023/12/01 06:57:43;;;;;;;20.40;11.83;;;3.90;99.90;;;;;;4192758;28;20322;-61
2023/12/01 06:59:44;;;;;;;19.13;11.83;;;4.00;99.90;;;;;;4193172;28;21176;-59
2023/12/01 07:01:46;;;;;;;19.83;10.97;;;4.00;99.90;;;;;;4157770;28;20349;-59
2023/12/01 07:03:47;;;;;;;22.63;11.47;;;4.10;99.90;;;;;;4192575;28;20093;-64
2023/12/01 07:05:51;;;;;;;17.07;10.63;;;4.10;99.90;;;;;;4193063;28;20281;-58
2023/12/01 07:07:53;;;;;;;18.90;11.50;;;4.10;99.90;;;;;;4192848;28;20278;-60
2023/12/01 07:09:54;;;;;;;19.57;11.53;;;4.20;99.90;;;;;;4192773;28;20338;-59
2023/12/01 07:11:58;;;;;;;20.33;11.67;;;4.20;99.90;;;;;;4178280;28;20297;-59
2023/12/01 07:13:59;;;;;;;18.63;10.87;;;4.20;99.90;;;;;;4176497;28;20431;-59
2023/12/01 07:16:09;;;;;;;20.13;12.03;;;4.20;99.90;;;;;;4190049;28;20335;-59
2023/12/01 07:18:11;;;;;;;18.75;11.07;;;4.30;99.90;;;;;;4193075;28;20373;-60
2023/12/01 07:20:13;;;;;;;19.63;11.27;;;4.30;99.90;;;;;;4188824;28;20064;-59
2023/12/01 07:22:14;;;;;;;20.13;11.47;;;4.30;99.90;;;;;;4189105;28;20048;-56
2023/12/01 07:24:18;;;;;;;22.93;12.80;;;4.30;99.90;;;;;;4192183;28;20266;-60
2023/12/01 07:26:27;;;;;;;21.70;11.53;;;4.30;99.90;;;;;;4191492;28;20045;-61
2023/12/01 07:28:28;;;;;;;21.03;12.10;;;4.40;99.90;;;;;;4192740;28;20327;-55
2023/12/01 07:30:29;;;;;;;22.03;12.90;;;4.40;99.90;;;;;;4191986;28;20020;-57
2023/12/01 07:32:30;;;;;;;24.83;12.67;;;4.40;99.90;;;;;;4190902;28;20049;-53
2023/12/01 07:34:32;;;;;;;19.20;11.63;;;4.40;99.90;;;;;;4191806;28;20401;-57
2023/12/01 07:36:33;;;;;;;20.33;12.00;;;4.40;99.90;;;;;;4191665;28;20044;-56
2023/12/01 07:38:34;;;;;;;20.63;11.80;;;4.50;99.90;;;;;;4192737;28;20330;-59
2023/12/01 07:40:36;;;;;;;20.27;11.97;;;4.50;99.90;;;;;;4192556;28;20384;-58
2023/12/01 07:42:39;;;;;;;19.00;11.60;;;4.60;99.90;;;;;;4187864;28;20033;-56
2023/12/01 07:44:40;;;;;;;19.00;11.00;;;4.60;99.90;;;;;;4167870;28;20045;-58
2023/12/01 07:46:41;;;;;;;19.10;9.87;;;4.50;99.90;;;;;;4192503;28;20028;-58
2023/12/01 07:48:43;;;;;;;21.97;10.80;;;4.50;99.90;;;;;;4190966;28;20036;-60
2023/12/01 07:50:45;;;;;;;19.70;11.33;;;4.50;99.90;;;;;;4191051;28;20028;-57
2023/12/01 07:52:47;;;;;;;23.40;12.83;;;4.60;99.90;;;;;;4191258;28;20041;-53
2023/12/01 07:54:48;;;;;;;20.83;12.67;;;4.60;99.90;;;;;;4192301;28;20028;-62
2023/12/01 07:56:49;;;;;;;23.80;12.47;;;4.60;99.90;;;;;;4191464;28;20516;-61
2023/12/01 07:58:50;;;;;;;24.07;14.10;;;4.60;99.90;;;;;;4192264;28;20032;-58
2023/12/01 08:00:52;;;;;;;26.53;14.60;;;4.60;99.90;;;;;;4191417;28;20375;-59
2023/12/01 08:02:56;;;;;;;24.67;14.67;;;4.60;99.90;;;;;;4190200;28;20086;-57
2023/12/01 08:04:57;;;;;;;26.73;15.07;;;4.60;99.90;;;;;;4192550;28;20435;-60
2023/12/01 08:06:58;;;;;;;28.53;15.13;;;4.60;99.90;;;;;;4192337;28;20543;-56
2023/12/01 08:08:59;;;;;;;27.17;13.27;;;4.60;99.90;;;;;;4173875;28;20086;-55
2023/12/01 08:11:04;;;;;;;23.30;13.77;;;4.70;99.90;;;;;;4192469;28;20106;-58
2023/12/01 08:13:05;;;;;;;24.63;13.83;;;4.80;99.90;;;;;;4191210;28;20474;-57
2023/12/01 08:15:06;;;;;;;26.17;15.67;;;4.90;99.90;;;;;;4191704;28;20094;-58
2023/12/01 08:17:08;;;;;;;21.83;13.30;;;4.90;99.90;;;;;;4191169;28;20562;-59
2023/12/01 08:19:12;;;;;;;29.43;14.30;;;5.00;99.90;;;;;;4191696;28;20661;-58
2023/12/01 08:21:14;;;;;;;26.63;15.10;;;5.00;99.90;;;;;;4192348;28;20032;-58
2023/12/01 08:23:16;;;;;;;25.33;14.73;;;5.00;99.90;;;;;;4192521;28;20021;-59
2023/12/01 08:25:17;;;;;;;27.07;14.40;;;5.00;99.90;;;;;;4191132;28;20037;-57
2023/12/01 08:27:18;;;;;;;31.03;16.37;;;5.00;99.90;;;;;;4191271;28;20110;-59
2023/12/01 08:29:20;;;;;;;29.00;16.13;;;5.00;99.90;;;;;;4191286;28;20041;-58
2023/12/01 08:31:21;;;;;;;28.13;14.73;;;5.00;99.90;;;;;;4191571;28;20086;-59
2023/12/01 08:33:22;;;;;;;27.63;14.90;;;5.00;99.90;;;;;;4192168;28;20330;-57
2023/12/01 08:35:24;;;;;;;24.80;15.37;;;5.00;99.90;;;;;;4192219;28;20021;-59
2023/12/01 08:37:25;;;;;;;30.03;15.50;;;5.00;99.90;;;;;;4191817;28;20044;-58
2023/12/01 08:39:27;;;;;;;27.13;14.70;;;5.00;99.90;;;;;;4192049;28;20028;-58
2023/12/01 08:41:29;;;;;;;25.03;13.87;;;5.00;99.90;;;;;;4173300;28;20063;-59
2023/12/01 08:43:30;;;;;;;25.03;14.47;;;5.00;99.90;;;;;;4191386;28;20037;-54
2023/12/01 08:45:32;;;;;;;23.07;13.73;;;5.10;99.90;;;;;;4190956;28;20040;-58
2023/12/01 08:47:34;;;;;;;26.57;17.23;;;5.10;99.90;;;;;;4190951;28;20090;-59
2023/12/01 08:49:35;;;;;;;31.47;17.67;;;5.10;99.90;;;;;;4190684;28;20091;-56
2023/12/01 08:51:36;;;;;;;27.63;16.30;;;5.10;99.90;;;;;;4191169;28;20052;-59
2023/12/01 08:53:37;;;;;;;29.47;16.80;;;5.10;99.90;;;;;;4191239;28;20378;-59
2023/12/01 08:55:38;;;;;;;28.07;15.97;;;5.10;99.90;;;;;;4191838;28;20117;-59
2023/12/01 08:57:40;;;;;;;102.57;40.20;;;5.10;99.90;;;;;;4191935;28;20036;-60
2023/12/01 08:59:41;;;;;;;44.73;22.87;;;5.10;99.90;;;;;;4191045;28;20079;-59
2023/12/01 09:01:43;;;;;;;36.03;19.13;;;5.10;99.90;;;;;;4193905;28;20438;-60
2023/12/01 09:03:45;;;;;;;49.17;23.07;;;5.10;99.90;;;;;;4194764;28;20029;-59
2023/12/01 09:05:46;;;;;;;43.40;24.17;;;5.20;99.90;;;;;;4195039;28;20489;-58
2023/12/01 09:07:48;;;;;;;29.70;18.13;;;5.20;99.90;;;;;;4194156;28;20106;-59
2023/12/01 09:09:49;;;;;;;29.20;17.50;;;5.20;99.90;;;;;;4193985;28;20033;-60
2023/12/01 09:11:50;;;;;;;26.40;17.20;;;5.20;99.90;;;;;;4194902;28;20028;-58
2023/12/01 09:13:52;;;;;;;36.47;19.77;;;5.20;99.90;;;;;;4194106;28;20732;-56
2023/12/01 09:15:53;;;;;;;32.73;19.03;;;5.20;99.90;;;;;;4194930;28;20028;-58
2023/12/01 09:17:54;;;;;;;40.43;21.80;;;5.10;99.90;;;;;;4194161;28;20032;-58
2023/12/01 09:19:56;;;;;;;31.77;17.83;;;5.10;99.90;;;;;;4194971;28;20033;-59
2023/12/01 09:21:57;;;;;;;29.07;17.53;;;5.10;99.90;;;;;;4194823;28;20469;-60
2023/12/01 09:23:58;;;;;;;27.30;15.33;;;5.10;99.90;;;;;;4193803;28;20078;-59
2023/12/01 09:25:59;;;;;;;28.30;15.50;;;5.10;99.90;;;;;;4194560;28;20036;-58
2023/12/01 09:28:00;;;;;;;30.60;17.50;;;5.00;99.90;;;;;;4194497;28;20028;-59
2023/12/01 09:30:02;;;;;;;31.70;17.23;;;5.10;99.90;;;;;;4194833;28;20025;-58
2023/12/01 09:32:03;;;;;;;25.97;15.77;;;5.10;99.90;;;;;;4193700;28;20044;-58
2023/12/01 09:34:04;;;;;;;25.23;15.67;;;5.10;99.90;;;;;;4194096;28;20048;-58
2023/12/01 09:36:06;;;;;;;24.23;15.10;;;5.10;99.90;;;;;;4194518;28;20089;-59
2023/12/01 09:38:07;;;;;;;30.10;14.50;;;5.10;99.90;;;;;;4193650;28;20443;-59
2023/12/01 09:40:10;;;;;;;24.43;13.33;;;5.10;99.90;;;;;;4194177;28;20029;-57
2023/12/01 09:42:11;;;;;;;25.83;13.90;;;5.10;99.90;;;;;;4194067;28;20028;-58
2023/12/01 09:44:13;;;;;;;29.80;15.53;;;5.10;99.90;;;;;;4193138;28;20036;-58
2023/12/01 09:46:15;;;;;;;24.00;14.63;;;5.10;99.90;;;;;;4193157;28;20044;-58
2023/12/01 09:48:19;;;;;;;25.67;13.83;;;5.10;99.90;;;;;;4194499;28;20419;-58
2023/12/01 09:50:21;;;;;;;24.23;13.70;;;5.10;99.90;;;;;;4193610;28;20130;-58
2023/12/01 09:52:22;;;;;;;23.30;13.53;;;5.10;99.90;;;;;;4194174;28;20146;-60
2023/12/01 09:54:23;;;;;;;26.37;14.90;;;5.10;99.90;;;;;;4193254;28;20052;-58
2023/12/01 09:56:26;;;;;;;25.47;13.30;;;5.10;99.90;;;;;;4192930;28;20382;-59
2023/12/01 09:58:28;;;;;;;22.07;13.10;;;5.10;99.90;;;;;;4193598;28;20090;-59
2023/12/01 10:00:29;;;;;;;24.93;14.43;;;5.10;99.90;;;;;;4194200;28;20028;-59
2023/12/01 10:02:31;;;;;;;28.67;15.23;;;5.10;99.90;;;;;;4193480;28;20101;-58
2023/12/01 10:04:33;;;;;;;22.83;14.63;;;5.20;99.90;;;;;;4193927;28;20098;-57
2023/12/01 10:06:37;;;;;;;22.03;12.73;;;5.20;99.90;;;;;;4193717;28;20125;-56
2023/12/01 10:08:39;;;;;;;18.63;11.00;;;5.20;99.90;;;;;;4193910;28;20025;-58
2023/12/01 10:10:40;;;;;;;23.47;12.03;;;5.20;99.90;;;;;;4193553;28;20086;-58
2023/12/01 10:12:52;;;;;;;21.13;11.87;;;5.30;99.90;;;;;;4193739;28;20090;-58
2023/12/01 10:14:55;;;;;;;23.17;12.67;;;5.30;99.90;;;;;;4192984;28;20504;-58
2023/12/01 10:17:03;;;;;;;20.63;10.57;;;5.30;99.90;;;;;;4193895;28;20029;-58
2023/12/01 10:19:05;;;;;;;15.03;9.23;;;5.30;99.90;;;;;;4193078;28;20170;-59
2023/12/01 10:21:07;;;;;;;14.63;8.67;;;5.40;99.90;;;;;;4193181;28;20025;-58
2023/12/01 10:23:18;;;;;;;13.00;8.07;;;5.40;99.90;;;;;;4193065;28;20106;-59
2023/12/01 10:25:19;;;;;;;17.20;9.57;;;5.50;99.90;;;;;;4193017;28;20099;-59
2023/12/01 10:27:21;;;;;;;14.83;8.33;;;5.50;99.90;;;;;;4193694;28;21083;-59
2023/12/01 10:29:35;;;;;;;14.17;8.77;;;5.60;99.90;;;;;;4194206;28;20082;-57
2023/12/01 10:31:47;;;;;;;11.70;7.83;;;5.70;99.90;;;;;;4193693;28;20029;-60